Terminal Aerodrome Forecast
Issued by NWS Northern Indiana

Home | Current Version | Previous Version | Graphics & Text | Print | Product List | Glossary On
Versions: 1 2 3 4 5 6 7 8 9 10 11 12 13 14 15
233
FTUS43 KIWX 110318 AAA
TAFFWA
TAF AMD
KFWA 110318Z 1103/1124 27011KT P6SM BKN050
     FM110600 28010KT P6SM -SN BKN030
     FM111800 27011KT P6SM BKN040=

USA.gov is the U.S. government's official web portal to all federal, state and local government web resources and services.